createdAt,value
2019-03-22T00:00:45.836Z,9.10
2019-03-22T00:03:15.802Z,7.97
2019-03-22T00:05:44.765Z,7.80
2019-03-22T00:08:13.671Z,7.70
2019-03-22T00:10:42.563Z,7.13
2019-03-22T00:13:11.496Z,7.93
2019-03-22T00:15:40.412Z,8.60
2019-03-22T00:18:09.376Z,8.00
2019-03-22T00:20:38.316Z,8.73
2019-03-22T00:23:07.247Z,8.73
2019-03-22T00:25:36.172Z,8.87
2019-03-22T00:28:24.452Z,9.17
2019-03-22T00:30:53.344Z,7.80
2019-03-22T00:33:22.238Z,8.30
2019-03-22T00:35:51.141Z,7.87
2019-03-22T00:38:20.073Z,8.87
2019-03-22T00:40:48.958Z,8.50
2019-03-22T00:43:17.891Z,8.60
2019-03-22T00:45:46.799Z,9.90
2019-03-22T00:48:15.690Z,9.47
2019-03-22T00:50:44.582Z,8.60
2019-03-22T00:53:13.515Z,9.10
2019-03-22T00:55:42.424Z,8.30
2019-03-22T00:58:11.327Z,8.73
2019-03-22T01:00:40.258Z,9.53
2019-03-22T01:03:09.156Z,10.10
2019-03-22T01:05:38.049Z,9.37
2019-03-22T01:08:06.943Z,9.00
2019-03-22T01:10:35.837Z,9.10
2019-03-22T01:13:05.824Z,9.73
2019-03-22T01:15:34.724Z,8.27
2019-03-22T01:18:03.601Z,9.00
2019-03-22T01:20:32.552Z,9.03
2019-03-22T01:23:01.469Z,8.60
2019-03-22T01:25:30.418Z,9.20
2019-03-22T01:27:59.348Z,9.67
2019-03-22T01:30:28.340Z,9.37
2019-03-22T01:32:57.297Z,9.63
2019-03-22T01:35:26.259Z,10.40
2019-03-22T01:37:55.192Z,10.67
2019-03-22T01:40:24.160Z,10.07
2019-03-22T01:42:53.100Z,10.67
2019-03-22T01:45:22.078Z,9.33
2019-03-22T01:47:51.036Z,8.53
2019-03-22T01:50:19.969Z,8.87
2019-03-22T01:52:48.862Z,9.47
2019-03-22T01:55:17.746Z,9.93
2019-03-22T01:57:53.058Z,8.53
2019-03-22T02:00:17.752Z,9.07
2019-03-22T02:02:46.864Z,8.63
2019-03-22T02:05:15.914Z,9.03
2019-03-22T02:07:44.906Z,9.33
2019-03-22T02:10:15.068Z,8.83
2019-03-22T02:12:44.089Z,9.67
2019-03-22T02:15:14.183Z,8.60
2019-03-22T02:17:43.491Z,7.47
2019-03-22T02:20:13.509Z,8.80
2019-03-22T02:22:42.541Z,9.40
2019-03-22T02:25:11.504Z,10.63
2019-03-22T02:27:40.480Z,9.57
2019-03-22T02:30:10.921Z,10.93
2019-03-22T02:32:39.889Z,10.13
2019-03-22T02:35:09.109Z,10.93
2019-03-22T02:37:38.110Z,10.07
2019-03-22T02:40:09.021Z,10.27
2019-03-22T02:42:37.929Z,9.37
2019-03-22T02:45:08.013Z,10.07
2019-03-22T02:47:36.975Z,8.90
2019-03-22T02:50:18.014Z,10.13
2019-03-22T02:52:39.079Z,11.47
2019-03-22T02:55:08.746Z,10.13
2019-03-22T02:57:37.642Z,11.07
2019-03-22T03:00:08.377Z,11.30
2019-03-22T03:02:37.268Z,11.67
2019-03-22T03:05:19.199Z,12.10
2019-03-22T03:07:48.096Z,12.53
2019-03-22T03:10:17.137Z,12.20
2019-03-22T03:12:46.112Z,11.53
2019-03-22T03:15:17.207Z,12.83
2019-03-22T03:17:46.214Z,12.37
2019-03-22T03:20:18.610Z,11.90
2019-03-22T03:22:48.622Z,12.50
2019-03-22T03:25:17.838Z,12.40
2019-03-22T03:27:46.800Z,11.00
2019-03-22T03:30:16.805Z,12.83
2019-03-22T03:32:45.937Z,12.00
2019-03-22T03:35:14.916Z,12.20
2019-03-22T03:37:43.979Z,11.67
2019-03-22T03:40:13.432Z,12.03
2019-03-22T03:42:42.368Z,13.50
2019-03-22T03:45:30.969Z,11.57
2019-03-22T03:48:00.740Z,11.60
2019-03-22T03:50:29.711Z,12.93
2019-03-22T03:52:58.638Z,12.50
2019-03-22T03:55:28.118Z,12.47
2019-03-22T03:57:57.079Z,13.63
2019-03-22T04:00:26.161Z,13.67
2019-03-22T04:02:55.061Z,13.13
2019-03-22T04:05:24.139Z,12.63
2019-03-22T04:07:53.167Z,13.40
2019-03-22T04:10:22.125Z,12.90
2019-03-22T04:12:51.043Z,12.90
2019-03-22T04:15:19.970Z,12.63
2019-03-22T04:17:48.886Z,13.33
2019-03-22T04:20:17.790Z,13.53
2019-03-22T04:22:46.722Z,14.13
2019-03-22T04:25:15.626Z,13.30
2019-03-22T04:27:44.528Z,13.47
2019-03-22T04:30:13.706Z,12.17
2019-03-22T04:32:42.640Z,13.10
2019-03-22T04:35:11.617Z,13.97
2019-03-22T04:37:40.566Z,12.83
2019-03-22T04:40:26.031Z,12.90
2019-03-22T04:42:55.021Z,13.53
2019-03-22T04:45:25.420Z,13.77
2019-03-22T04:47:55.865Z,13.77
2019-03-22T04:50:25.568Z,12.87
2019-03-22T04:52:55.037Z,13.63
2019-03-22T04:55:24.199Z,13.83
2019-03-22T04:57:53.505Z,12.43
2019-03-22T05:00:23.746Z,12.90
2019-03-22T05:02:53.108Z,12.73
2019-03-22T05:05:22.301Z,13.03
2019-03-22T05:07:51.599Z,13.33
2019-03-22T05:10:20.670Z,12.27
2019-03-22T05:12:50.193Z,14.50
2019-03-22T05:15:19.477Z,14.67
2019-03-22T05:17:48.844Z,12.80
2019-03-22T05:20:19.129Z,13.07
2019-03-22T05:22:48.427Z,14.20
2019-03-22T05:25:18.596Z,12.90
2019-03-22T05:27:49.087Z,12.87
2019-03-22T05:30:36.271Z,13.00
2019-03-22T05:33:05.180Z,13.53
2019-03-22T05:35:34.088Z,13.80
2019-03-22T05:38:02.991Z,13.93
2019-03-22T05:40:31.911Z,14.10
2019-03-22T05:43:00.801Z,13.93
2019-03-22T05:45:29.710Z,14.90
2019-03-22T05:47:58.644Z,13.10
2019-03-22T05:50:27.547Z,15.10
2019-03-22T05:52:56.455Z,15.90
2019-03-22T05:55:25.400Z,15.87
2019-03-22T05:57:54.292Z,15.03
2019-03-22T06:00:23.192Z,14.60
2019-03-22T06:02:52.128Z,14.30
2019-03-22T06:05:21.034Z,14.97
2019-03-22T06:07:49.948Z,15.27
2019-03-22T06:10:18.946Z,16.07
2019-03-22T06:12:47.851Z,13.33
2019-03-22T06:15:16.749Z,14.33
2019-03-22T06:17:51.528Z,16.17
2019-03-22T06:20:16.351Z,14.90
2019-03-22T06:22:45.325Z,15.47
2019-03-22T06:25:15.824Z,16.03
2019-03-22T06:27:44.697Z,15.93
2019-03-22T06:30:13.665Z,16.90
2019-03-22T06:32:42.612Z,18.37
2019-03-22T06:35:12.639Z,17.30
2019-03-22T06:37:41.540Z,18.40
2019-03-22T06:40:10.538Z,16.23
2019-03-22T06:42:39.515Z,16.27
2019-03-22T06:45:08.471Z,17.10
2019-03-22T06:47:38.474Z,15.87
2019-03-22T06:50:07.639Z,16.77
2019-03-22T06:52:36.533Z,15.93
2019-03-22T06:55:06.836Z,17.87
2019-03-22T06:57:35.728Z,16.57
2019-03-22T07:00:08.548Z,16.90
2019-03-22T07:02:37.459Z,18.93
2019-03-22T07:05:06.425Z,17.43
2019-03-22T07:07:35.358Z,17.80
2019-03-22T07:10:08.133Z,19.17
2019-03-22T07:12:37.130Z,19.00
2019-03-22T07:15:06.357Z,20.40
2019-03-22T07:17:35.248Z,18.83
2019-03-22T07:20:05.237Z,18.53
2019-03-22T07:22:34.209Z,19.90
2019-03-22T07:25:04.479Z,19.63
2019-03-22T07:27:33.466Z,20.20
2019-03-22T07:30:03.182Z,19.07
2019-03-22T07:32:32.096Z,19.87
2019-03-22T07:35:01.069Z,19.57
2019-03-22T07:37:30.171Z,19.73
2019-03-22T07:39:59.144Z,20.77
2019-03-22T07:42:28.043Z,19.63
2019-03-22T07:44:56.957Z,18.57
2019-03-22T07:47:25.851Z,19.40
2019-03-22T07:49:54.757Z,19.73
2019-03-22T07:52:23.717Z,19.03
2019-03-22T07:54:52.694Z,20.63
2019-03-22T07:57:21.599Z,19.30
2019-03-22T07:59:50.537Z,19.50
2019-03-22T08:02:19.428Z,19.70
2019-03-22T08:04:48.327Z,19.10
2019-03-22T08:07:17.277Z,21.50
2019-03-22T08:09:46.352Z,20.83
2019-03-22T08:12:15.483Z,21.43
2019-03-22T08:14:44.457Z,21.23
2019-03-22T08:17:14.424Z,21.67
2019-03-22T08:19:43.328Z,22.13
2019-03-22T08:22:12.329Z,21.60
2019-03-22T08:24:41.233Z,21.37
2019-03-22T08:27:10.144Z,22.10
2019-03-22T08:29:39.069Z,20.50
2019-03-22T08:32:07.965Z,22.37
2019-03-22T08:34:36.864Z,20.73
2019-03-22T08:37:05.972Z,21.77
2019-03-22T08:39:34.861Z,21.17
2019-03-22T08:42:03.832Z,21.57
2019-03-22T08:44:32.771Z,21.23
2019-03-22T08:47:01.686Z,19.93
2019-03-22T08:49:30.710Z,20.60
2019-03-22T08:51:59.787Z,20.73
2019-03-22T08:54:28.756Z,23.23
2019-03-22T08:56:57.656Z,21.40
2019-03-22T08:59:26.605Z,22.27
2019-03-22T09:01:55.535Z,22.63
2019-03-22T09:04:24.554Z,22.80
2019-03-22T09:06:53.498Z,21.40
2019-03-22T09:09:22.400Z,21.40
2019-03-22T09:11:51.309Z,23.00
2019-03-22T09:14:21.253Z,22.53
2019-03-22T09:16:50.277Z,22.07
2019-03-22T09:19:19.169Z,23.27
2019-03-22T09:21:48.183Z,21.80
2019-03-22T09:24:19.017Z,22.83
2019-03-22T09:26:48.162Z,23.13
2019-03-22T09:29:17.288Z,21.50
2019-03-22T09:31:46.206Z,23.00
2019-03-22T09:34:15.147Z,20.93
2019-03-22T09:36:44.106Z,22.43
2019-03-22T09:39:13.037Z,22.83
2019-03-22T09:41:41.944Z,22.13
2019-03-22T09:44:10.981Z,20.40
2019-03-22T09:46:39.990Z,20.43
2019-03-22T09:49:08.914Z,21.13
2019-03-22T09:51:37.832Z,20.57
2019-03-22T09:54:06.783Z,21.60
2019-03-22T09:56:46.337Z,20.20
2019-03-22T09:59:06.450Z,18.97
2019-03-22T10:01:35.382Z,20.07
2019-03-22T10:04:04.340Z,19.83
2019-03-22T10:06:33.345Z,20.47
2019-03-22T10:09:05.347Z,20.17
2019-03-22T10:11:33.087Z,20.23
2019-03-22T10:14:02.009Z,21.10
2019-03-22T10:16:30.957Z,20.17
2019-03-22T10:19:00.024Z,19.13
2019-03-22T10:21:29.016Z,18.83
2019-03-22T10:23:57.934Z,20.07
2019-03-22T10:26:26.987Z,20.73
2019-03-22T10:28:56.012Z,19.47
2019-03-22T10:31:36.613Z,19.63
2019-03-22T10:33:56.649Z,20.07
2019-03-22T10:36:25.704Z,19.83
2019-03-22T10:38:54.653Z,20.57
2019-03-22T10:41:23.631Z,18.53
2019-03-22T10:43:52.592Z,19.47
2019-03-22T10:46:21.597Z,19.27
2019-03-22T10:48:50.577Z,19.63
2019-03-22T10:51:21.504Z,19.63
2019-03-22T10:53:50.109Z,20.80
2019-03-22T10:56:19.055Z,20.23
2019-03-22T10:58:47.960Z,19.77
2019-03-22T11:01:16.904Z,20.07
2019-03-22T11:03:45.991Z,20.87
2019-03-22T11:06:14.973Z,21.07
2019-03-22T11:08:43.902Z,20.77
2019-03-22T11:11:12.861Z,20.80
2019-03-22T11:13:41.830Z,21.57
2019-03-22T11:16:10.791Z,19.83
2019-03-22T11:18:39.742Z,20.23
2019-03-22T11:21:08.637Z,21.50
2019-03-22T11:23:37.588Z,21.47
2019-03-22T11:26:06.549Z,20.60
2019-03-22T11:28:35.572Z,20.27
2019-03-22T11:31:05.015Z,20.87
2019-03-22T11:33:34.224Z,20.07
2019-03-22T11:36:03.394Z,20.30
2019-03-22T11:38:32.377Z,21.57
2019-03-22T11:41:01.320Z,21.40
2019-03-22T11:43:30.285Z,20.13
2019-03-22T11:45:59.192Z,19.87
2019-03-22T11:48:28.115Z,21.03
2019-03-22T11:50:57.093Z,20.53
2019-03-22T11:53:26.029Z,19.80
2019-03-22T11:55:54.968Z,20.23
2019-03-22T11:58:23.875Z,21.10
2019-03-22T12:00:52.748Z,20.90
2019-03-22T12:03:21.664Z,19.53
2019-03-22T12:05:50.564Z,20.27
2019-03-22T12:08:19.538Z,21.33
2019-03-22T12:10:48.480Z,20.13
2019-03-22T12:13:17.368Z,20.13
2019-03-22T12:15:46.259Z,20.67
2019-03-22T12:18:15.191Z,20.07
2019-03-22T12:20:44.080Z,20.83
2019-03-22T12:23:12.970Z,20.10
2019-03-22T12:25:41.907Z,21.40
2019-03-22T12:28:10.805Z,20.27
2019-03-22T12:30:39.772Z,20.30
2019-03-22T12:33:08.707Z,21.87
2019-03-22T12:35:37.607Z,20.53
2019-03-22T12:38:06.572Z,21.77
2019-03-22T12:40:35.506Z,21.33
2019-03-22T12:43:04.469Z,19.87
2019-03-22T12:45:33.637Z,20.30
2019-03-22T12:48:02.581Z,20.50
2019-03-22T12:50:31.480Z,22.20
2019-03-22T12:53:00.381Z,20.50
2019-03-22T12:55:30.616Z,21.57
2019-03-22T12:57:59.639Z,20.50
2019-03-22T13:00:29.076Z,20.23
2019-03-22T13:02:58.023Z,20.90
2019-03-22T13:05:26.912Z,20.23
2019-03-22T13:07:55.818Z,20.13
2019-03-22T13:10:25.610Z,22.00
2019-03-22T13:12:54.506Z,21.40
2019-03-22T13:15:23.464Z,20.43
2019-03-22T13:17:52.472Z,21.23
2019-03-22T13:20:21.489Z,20.27
2019-03-22T13:22:50.461Z,23.97
2019-03-22T13:25:21.175Z,20.30
2019-03-22T13:27:50.066Z,21.67
2019-03-22T13:30:35.390Z,21.50
2019-03-22T13:33:04.808Z,20.50
2019-03-22T13:35:33.879Z,19.53
2019-03-22T13:38:02.923Z,19.23
2019-03-22T13:40:31.948Z,20.70
2019-03-22T13:43:00.850Z,21.77
2019-03-22T13:45:29.921Z,19.97
2019-03-22T13:47:58.845Z,20.93
2019-03-22T13:50:27.855Z,20.50
2019-03-22T13:52:56.787Z,22.23
2019-03-22T13:55:25.746Z,21.57
2019-03-22T13:57:54.628Z,20.97
2019-03-22T14:00:23.560Z,21.20
2019-03-22T14:03:02.063Z,21.57
2019-03-22T14:05:23.114Z,21.33
2019-03-22T14:07:52.048Z,20.70
2019-03-22T14:10:31.556Z,21.30
2019-03-22T14:13:01.579Z,19.80
2019-03-22T14:15:30.475Z,20.87
2019-03-22T14:17:59.641Z,20.30
2019-03-22T14:20:29.058Z,19.93
2019-03-22T14:22:58.053Z,20.83
2019-03-22T14:25:26.955Z,19.93
2019-03-22T14:27:55.885Z,21.10
2019-03-22T14:30:24.887Z,19.87
2019-03-22T14:32:54.339Z,20.13
2019-03-22T14:35:23.335Z,20.23
2019-03-22T14:37:52.233Z,20.17
2019-03-22T14:40:21.150Z,20.63
2019-03-22T14:42:50.141Z,20.17
2019-03-22T14:45:19.411Z,20.50
2019-03-22T14:47:48.310Z,18.97
2019-03-22T14:50:17.236Z,20.37
2019-03-22T14:52:53.502Z,19.77
2019-03-22T14:55:22.602Z,20.23
2019-03-22T14:57:52.508Z,18.57
2019-03-22T15:00:21.607Z,19.67
2019-03-22T15:02:50.681Z,18.60
2019-03-22T15:05:19.583Z,18.37
2019-03-22T15:07:48.537Z,18.40
2019-03-22T15:10:17.474Z,18.77
2019-03-22T15:12:46.541Z,18.00
2019-03-22T15:15:23.335Z,17.50
2019-03-22T15:18:09.044Z,15.20
2019-03-22T15:20:51.736Z,15.30
2019-03-22T15:23:31.386Z,14.70
2019-03-22T15:26:18.583Z,14.03
2019-03-22T15:28:49.138Z,13.57
2019-03-22T15:31:22.786Z,13.63
2019-03-22T15:34:09.803Z,14.30
2019-03-22T15:36:49.180Z,14.43
2019-03-22T15:42:00.816Z,14.67
2019-03-22T15:44:29.721Z,15.17
2019-03-22T15:46:58.620Z,15.23
2019-03-22T15:49:27.520Z,13.60
2019-03-22T15:51:56.492Z,14.80
2019-03-22T15:54:25.416Z,14.07
2019-03-22T15:56:54.333Z,13.43
2019-03-22T15:59:23.239Z,13.00
2019-03-22T16:01:52.223Z,12.60
2019-03-22T16:04:21.129Z,12.83
2019-03-22T16:06:50.100Z,13.50
2019-03-22T16:09:19.181Z,14.43
2019-03-22T16:11:48.065Z,13.13
2019-03-22T16:14:16.956Z,13.83
2019-03-22T16:16:46.038Z,12.80
2019-03-22T16:19:14.938Z,13.80
2019-03-22T16:21:43.840Z,13.13
2019-03-22T16:24:12.812Z,10.97
2019-03-22T16:26:41.713Z,11.07
2019-03-22T16:29:10.621Z,11.87
2019-03-22T16:31:39.692Z,11.33
2019-03-22T16:34:08.652Z,9.37
2019-03-22T16:36:37.548Z,9.30
2019-03-22T16:39:09.430Z,9.10
2019-03-22T16:41:38.310Z,9.00
2019-03-22T16:44:07.214Z,10.30
2019-03-22T16:46:36.213Z,9.70
2019-03-22T16:49:06.184Z,8.83
2019-03-22T16:51:35.204Z,9.53
2019-03-22T16:54:04.400Z,11.07
2019-03-22T16:56:33.383Z,10.23
2019-03-22T16:59:02.343Z,8.60
2019-03-22T17:01:31.339Z,9.57
2019-03-22T17:04:04.468Z,9.13
2019-03-22T17:06:30.973Z,8.80
2019-03-22T17:09:01.730Z,8.53
2019-03-22T17:11:32.264Z,10.53
2019-03-22T17:14:01.169Z,9.87
2019-03-22T17:16:30.102Z,9.23
2019-03-22T17:18:59.000Z,13.97
2019-03-22T17:21:27.900Z,12.77
2019-03-22T17:23:56.874Z,10.17
2019-03-22T17:26:25.778Z,10.13
2019-03-22T17:28:54.671Z,10.03
2019-03-22T17:31:23.611Z,11.67
2019-03-22T17:33:52.507Z,10.93
2019-03-22T17:36:21.405Z,12.03
2019-03-22T17:38:50.411Z,11.03
2019-03-22T17:41:19.312Z,12.17
2019-03-22T17:43:48.208Z,12.17
2019-03-22T17:46:17.160Z,12.53
2019-03-22T17:48:47.042Z,11.67
2019-03-22T17:51:16.040Z,12.33
2019-03-22T17:53:46.072Z,13.40
2019-03-22T17:56:15.058Z,13.40
2019-03-22T17:58:44.021Z,13.87
2019-03-22T18:01:13.029Z,15.00
2019-03-22T18:03:42.022Z,16.23
2019-03-22T18:06:10.933Z,15.23
2019-03-22T18:08:39.866Z,15.53
2019-03-22T18:11:09.834Z,14.93
2019-03-22T18:13:38.738Z,15.37
2019-03-22T18:16:07.697Z,14.57
2019-03-22T18:18:36.597Z,14.53
2019-03-22T18:21:05.496Z,13.83
2019-03-22T18:23:35.897Z,14.17
2019-03-22T18:26:05.059Z,13.67
2019-03-22T18:28:34.043Z,14.00
2019-03-22T18:31:02.966Z,13.70
2019-03-22T18:33:31.858Z,12.77
2019-03-22T18:36:00.759Z,13.87
2019-03-22T18:38:29.693Z,14.53
2019-03-22T18:40:58.595Z,14.30
2019-03-22T18:43:27.567Z,14.50
2019-03-22T18:45:58.513Z,13.83
2019-03-22T18:48:27.143Z,13.07
2019-03-22T18:50:57.045Z,13.30
2019-03-22T18:53:26.181Z,13.53
2019-03-22T18:55:55.077Z,13.63
2019-03-22T18:58:24.037Z,12.80
2019-03-22T19:00:52.931Z,12.10
2019-03-22T19:03:21.901Z,14.13
2019-03-22T19:05:50.887Z,13.43
2019-03-22T19:08:19.819Z,13.30
2019-03-22T19:10:48.781Z,13.53
2019-03-22T19:13:17.738Z,13.20
2019-03-22T19:15:46.675Z,13.20
2019-03-22T19:18:15.597Z,13.47
2019-03-22T19:20:44.489Z,13.40
2019-03-22T19:23:13.440Z,12.90
2019-03-22T19:25:42.339Z,12.90
2019-03-22T19:28:11.278Z,14.37
2019-03-22T19:30:40.264Z,14.13
2019-03-22T19:33:30.152Z,14.63
2019-03-22T19:35:59.091Z,13.90
2019-03-22T19:38:28.123Z,15.63
2019-03-22T19:40:57.031Z,15.10
2019-03-22T19:43:25.995Z,15.17
2019-03-22T19:45:54.954Z,16.90
2019-03-22T19:48:23.855Z,15.97
2019-03-22T19:50:52.781Z,17.00
2019-03-22T19:53:21.766Z,15.80
2019-03-22T19:55:50.678Z,16.30
2019-03-22T19:58:20.607Z,16.00
2019-03-22T20:00:49.496Z,15.87
2019-03-22T20:03:18.478Z,15.30
2019-03-22T20:05:47.425Z,15.03
2019-03-22T20:08:16.437Z,15.30
2019-03-22T20:10:45.346Z,17.67
2019-03-22T20:13:14.256Z,15.87
2019-03-22T20:15:43.165Z,16.07
2019-03-22T20:18:12.109Z,16.13
2019-03-22T20:20:41.020Z,15.20
2019-03-22T20:23:09.922Z,16.00
2019-03-22T20:25:38.827Z,15.57
2019-03-22T20:28:07.748Z,15.87
2019-03-22T20:30:36.664Z,16.80
2019-03-22T20:33:05.625Z,15.27
2019-03-22T20:35:34.567Z,15.63
2019-03-22T20:38:03.616Z,13.90
2019-03-22T20:40:32.577Z,15.27
2019-03-22T20:43:01.527Z,14.57
2019-03-22T20:45:30.521Z,14.93
2019-03-22T20:48:00.561Z,14.37
2019-03-22T20:50:35.692Z,15.23
2019-03-22T20:53:00.428Z,14.53
2019-03-22T20:55:29.330Z,14.33
2019-03-22T20:57:58.277Z,13.63
2019-03-22T21:00:27.492Z,13.07
2019-03-22T21:02:56.582Z,11.13
2019-03-22T21:05:27.148Z,11.57
2019-03-22T21:07:56.270Z,12.43
2019-03-22T21:10:25.172Z,10.67
2019-03-22T21:12:54.114Z,12.03
2019-03-22T21:15:24.660Z,11.77
2019-03-22T21:17:53.806Z,12.63
2019-03-22T21:20:22.785Z,12.83
2019-03-22T21:22:51.692Z,12.87
2019-03-22T21:25:20.583Z,13.37
2019-03-22T21:27:49.500Z,12.37
2019-03-22T21:30:18.410Z,13.50
2019-03-22T21:32:47.329Z,12.70
2019-03-22T21:35:22.557Z,13.90
2019-03-22T21:37:46.931Z,12.50
2019-03-22T21:40:15.839Z,12.90
2019-03-22T21:42:44.754Z,14.03
2019-03-22T21:45:13.726Z,13.80
2019-03-22T21:47:42.680Z,13.23
2019-03-22T21:50:11.814Z,13.90
2019-03-22T21:52:40.818Z,13.33
2019-03-22T21:55:10.010Z,13.33
2019-03-22T21:57:39.022Z,13.50
2019-03-22T22:00:09.539Z,12.80
2019-03-22T22:02:38.952Z,12.20
2019-03-22T22:05:08.018Z,11.07
2019-03-22T22:07:36.996Z,11.33
2019-03-22T22:10:07.532Z,11.20
2019-03-22T22:12:36.499Z,11.03
2019-03-22T22:15:08.115Z,10.57
2019-03-22T22:17:39.239Z,11.03
2019-03-22T22:20:07.860Z,10.90
2019-03-22T22:22:36.756Z,10.57
2019-03-22T22:25:06.170Z,12.13
2019-03-22T22:27:35.501Z,10.70
2019-03-22T22:30:06.560Z,9.60
2019-03-22T22:32:35.556Z,10.07
2019-03-22T22:35:06.220Z,10.67
2019-03-22T22:37:35.182Z,12.20
2019-03-22T22:40:10.911Z,11.93
2019-03-22T22:42:39.815Z,10.93
2019-03-22T22:45:09.587Z,11.33
2019-03-22T22:47:38.580Z,12.30
2019-03-22T22:50:11.083Z,11.13
2019-03-22T22:52:39.979Z,11.73
2019-03-22T22:55:09.293Z,11.57
2019-03-22T22:57:38.188Z,11.97
2019-03-22T23:00:16.699Z,12.17
2019-03-22T23:02:47.291Z,11.87
2019-03-22T23:05:16.281Z,11.60
2019-03-22T23:07:45.274Z,12.47
2019-03-22T23:10:14.186Z,11.37
2019-03-22T23:12:43.348Z,11.53
2019-03-22T23:15:12.336Z,11.57
2019-03-22T23:17:41.231Z,11.40
2019-03-22T23:20:10.495Z,11.77
2019-03-22T23:22:39.403Z,11.67
2019-03-22T23:25:08.367Z,11.53
2019-03-22T23:27:37.265Z,12.33
2019-03-22T23:30:08.568Z,11.20
2019-03-22T23:32:37.597Z,10.77
2019-03-22T23:35:06.562Z,11.00
2019-03-22T23:37:35.472Z,11.30
2019-03-22T23:40:05.312Z,10.93
2019-03-22T23:42:34.209Z,10.30
2019-03-22T23:45:04.483Z,11.50
2019-03-22T23:47:33.373Z,11.87
2019-03-22T23:50:02.273Z,11.00
2019-03-22T23:52:31.344Z,10.83
2019-03-22T23:55:00.353Z,10.63
2019-03-22T23:57:29.224Z,12.87
2019-03-22T23:59:58.136Z,11.07
